Time;durP1;ratioP1;P1;durP2;ratioP2;P2;SDS_P1;SDS_P2;PMS_P1;PMS_P2;Temp;Humidity;BMP_temperature;BMP_pressure;BME280_temperature;BME280_humidity;BME280_pressure;Samples;Min_cycle;Max_cycle;Signal;HPM_P1;HPM_P2
2022/04/20 00:02:17;;;;;;;143.60;90.10;;;;;;;2.26;82.19;98770.05;105217;1271;72347;-78
2022/04/20 00:04:43;;;;;;;96.00;64.20;;;;;;;2.25;82.48;98768.36;105092;1272;61379;-75
2022/04/20 00:07:10;;;;;;;98.00;63.90;;;;;;;2.22;82.68;98765.48;105012;1271;61460;-76
2022/04/20 00:09:37;;;;;;;88.10;56.80;;;;;;;2.17;82.68;98767.73;105230;1270;74868;-78
2022/04/20 00:12:05;;;;;;;71.40;51.10;;;;;;;2.13;82.64;98765.11;105213;1270;69232;-76
2022/04/20 00:14:31;;;;;;;77.50;52.00;;;;;;;2.05;82.66;98768.20;105199;1270;74365;-76
2022/04/20 00:16:58;;;;;;;78.60;55.80;;;;;;;1.95;82.91;98768.73;105192;1270;61294;-76
2022/04/20 00:19:24;;;;;;;77.90;53.40;;;;;;;1.84;83.08;98770.17;105204;1270;61325;-75
2022/04/20 00:21:51;;;;;;;77.60;53.10;;;;;;;1.74;83.34;98768.26;104992;1271;61335;-76
2022/04/20 00:24:17;;;;;;;73.10;51.30;;;;;;;1.66;83.63;98767.29;105207;1269;69611;-76
2022/04/20 00:26:44;;;;;;;75.60;53.70;;;;;;;1.60;84.01;98769.45;105180;1271;71440;-75
2022/04/20 00:29:10;;;;;;;75.50;53.30;;;;;;;1.55;84.38;98768.19;105145;1270;61375;-77
2022/04/20 00:31:37;;;;;;;71.00;52.60;;;;;;;1.51;84.79;98765.88;105211;1270;61233;-75
2022/04/20 00:34:04;;;;;;;70.30;52.50;;;;;;;1.46;85.02;98766.04;105095;1271;61292;-76
2022/04/20 00:36:30;;;;;;;73.00;52.90;;;;;;;1.43;85.34;98768.42;105183;1270;69423;-75
2022/04/20 00:38:57;;;;;;;71.70;51.00;;;;;;;1.40;85.51;98768.71;105250;1270;61486;-77
2022/04/20 00:41:23;;;;;;;70.90;50.70;;;;;;;1.36;85.88;98769.52;105129;1270;61368;-76
2022/04/20 00:43:50;;;;;;;70.20;50.40;;;;;;;1.33;86.06;98765.42;105139;1273;61155;-76
2022/04/20 00:46:19;;;;;;;74.30;51.40;;;;;;;1.29;86.20;98768.20;105216;1270;76178;-76
2022/04/20 00:48:47;;;;;;;70.10;51.50;;;;;;;1.25;86.38;98768.48;105219;1270;69249;-77
2022/04/20 00:51:14;;;;;;;70.60;53.10;;;;;;;1.21;86.75;98771.41;104487;1270;1003338;-75
2022/04/20 00:53:40;;;;;;;69.80;51.20;;;;;;;1.18;86.99;98770.99;105196;1270;61357;-76
2022/04/20 00:56:07;;;;;;;71.40;52.10;;;;;;;1.13;87.31;98766.95;105158;1271;61333;-77
2022/04/20 00:58:39;;;;;;;76.80;55.80;;;;;;;1.08;87.54;98762.38;105237;1270;61368;-77
2022/04/20 01:01:08;;;;;;;79.20;54.50;;;;;;;1.06;87.84;98762.13;105236;1270;68860;-76
2022/04/20 01:03:34;;;;;;;82.70;61.40;;;;;;;1.05;88.32;98760.39;105180;1270;73336;-75
2022/04/20 01:06:01;;;;;;;79.60;55.30;;;;;;;1.05;88.50;98764.08;105211;1273;61233;-75
2022/04/20 01:08:29;;;;;;;79.90;55.00;;;;;;;1.03;88.76;98766.05;105185;1270;61183;-76
2022/04/20 01:10:55;;;;;;;85.40;61.20;;;;;;;1.01;88.82;98765.92;105242;1270;75300;-76
2022/04/20 01:13:22;;;;;;;89.50;62.80;;;;;;;1.01;89.20;98763.34;105180;1270;61483;-76
2022/04/20 01:15:48;;;;;;;88.70;60.90;;;;;;;1.01;89.45;98764.90;103674;1270;1003108;-75
2022/04/20 01:18:16;;;;;;;94.40;67.20;;;;;;;1.01;89.50;98768.40;105165;1270;61397;-75
2022/04/20 01:20:43;;;;;;;104.80;69.80;;;;;;;1.00;89.68;98769.84;105730;1271;61438;-75
2022/04/20 01:23:12;;;;;;;101.60;68.10;;;;;;;1.00;89.70;98773.14;105200;1270;75288;-75
2022/04/20 01:25:39;;;;;;;100.00;70.90;;;;;;;1.02;90.24;98773.80;105185;1270;69105;-76
2022/04/20 01:28:07;;;;;;;104.00;70.60;;;;;;;1.02;90.50;98772.90;105171;1270;74664;-75
2022/04/20 01:30:35;;;;;;;94.30;64.90;;;;;;;1.03;90.47;98773.93;105172;1270;61336;-75
2022/04/20 01:33:02;;;;;;;102.50;69.60;;;;;;;1.02;90.45;98769.58;105596;1270;61336;-76
2022/04/20 01:35:28;;;;;;;91.70;66.20;;;;;;;1.01;90.53;98770.50;105196;1270;74820;-76
2022/04/20 01:37:55;;;;;;;87.80;62.30;;;;;;;0.99;90.64;98769.50;105233;1270;69886;-75
2022/04/20 01:40:22;;;;;;;84.90;58.50;;;;;;;0.96;90.66;98768.36;105210;1269;73196;-76
2022/04/20 01:42:49;;;;;;;86.20;60.20;;;;;;;0.93;90.92;98766.37;105117;1268;61251;-76
2022/04/20 01:45:15;;;;;;;85.00;61.60;;;;;;;0.89;90.94;98762.50;105187;1270;61321;-75
2022/04/20 01:47:42;;;;;;;80.40;57.60;;;;;;;0.85;91.16;98763.80;104923;1270;61333;-75
2022/04/20 01:50:08;;;;;;;78.70;56.70;;;;;;;0.81;91.33;98761.84;102254;1270;1003655;-76
2022/04/20 01:52:35;;;;;;;84.00;57.40;;;;;;;0.73;91.21;98762.27;105197;1270;74721;-76
2022/04/20 01:55:02;;;;;;;80.60;57.80;;;;;;;0.67;91.62;98761.08;105199;1270;61381;-76
2022/04/20 01:57:28;;;;;;;80.10;57.10;;;;;;;0.62;91.90;98767.51;105200;1271;61147;-75
2022/04/20 01:59:55;;;;;;;77.90;58.40;;;;;;;0.58;92.39;98765.17;105207;1270;76139;-76
2022/04/20 02:02:40;;;;;;;86.20;64.50;;;;;;;0.55;92.65;98766.14;105127;1273;61276;-77
2022/04/20 02:05:12;;;;;;;96.20;69.50;;;;;;;0.53;93.13;98765.19;105074;1270;74497;-75
2022/04/20 02:07:39;;;;;;;103.30;72.80;;;;;;;0.52;93.88;98769.71;105186;1270;61284;-75
2022/04/20 02:10:06;;;;;;;102.10;72.30;;;;;;;0.51;94.27;98770.13;105190;1270;61283;-76
2022/04/20 02:12:33;;;;;;;103.30;78.80;;;;;;;0.50;94.52;98769.10;105185;1270;75103;-75
2022/04/20 02:15:00;;;;;;;107.60;75.70;;;;;;;0.49;94.94;98770.71;105183;1270;69247;-75
2022/04/20 02:17:26;;;;;;;104.50;75.50;;;;;;;0.48;95.23;98770.92;105143;1270;73157;-75
2022/04/20 02:19:58;;;;;;;100.30;73.10;;;;;;;0.45;95.77;98772.04;105214;1270;61244;-75
2022/04/20 02:22:25;;;;;;;105.40;77.80;;;;;;;0.43;95.94;98774.52;105169;1270;61155;-75
2022/04/20 02:24:52;;;;;;;112.10;78.90;;;;;;;0.41;96.14;98777.55;105195;1270;75309;-75
2022/04/20 02:27:19;;;;;;;132.00;87.00;;;;;;;0.42;96.60;98774.05;105188;1270;69324;-77
2022/04/20 02:29:47;;;;;;;115.10;80.90;;;;;;;0.42;97.40;98774.22;105199;1268;73376;-75
2022/04/20 02:32:13;;;;;;;125.60;86.90;;;;;;;0.44;98.88;98771.73;105244;1270;61308;-75
2022/04/20 02:34:40;;;;;;;118.70;82.30;;;;;;;0.46;99.55;98768.86;105182;1270;59966;-76
2022/04/20 02:37:07;;;;;;;120.30;85.10;;;;;;;0.49;99.83;98768.78;105178;1270;61226;-76
2022/04/20 02:39:35;;;;;;;124.00;87.80;;;;;;;0.52;100.00;98764.67;105175;1270;66701;-76
2022/04/20 02:42:04;;;;;;;111.70;81.20;;;;;;;0.56;100.00;98763.67;104469;1270;1003821;-75
2022/04/20 02:44:31;;;;;;;112.80;80.10;;;;;;;0.58;100.00;98759.78;105200;1270;61290;-75
2022/04/20 02:46:58;;;;;;;119.30;82.70;;;;;;;0.59;100.00;98754.15;105221;1270;61240;-75
2022/04/20 02:49:24;;;;;;;111.10;80.10;;;;;;;0.57;100.00;98745.45;104437;1271;1003193;-77
2022/04/20 02:51:51;;;;;;;117.20;80.70;;;;;;;0.57;100.00;98745.12;104987;1271;61176;-77
2022/04/20 02:54:17;;;;;;;114.20;82.80;;;;;;;0.56;100.00;98740.95;105167;1270;73269;-75
2022/04/20 02:56:44;;;;;;;118.50;81.90;;;;;;;0.52;100.00;98748.40;104997;1271;61294;-76
2022/04/20 02:59:10;;;;;;;116.90;83.20;;;;;;;0.44;100.00;98747.06;105166;1270;61234;-74
2022/04/20 03:01:37;;;;;;;112.40;82.90;;;;;;;0.37;100.00;98746.41;105173;1270;76358;-76
2022/04/20 03:04:03;;;;;;;113.70;80.70;;;;;;;0.31;100.00;98745.71;105184;1270;69138;-76
2022/04/20 03:06:30;;;;;;;110.80;78.10;;;;;;;0.27;100.00;98749.34;105201;1270;72689;-75
2022/04/20 03:08:57;;;;;;;124.70;90.60;;;;;;;0.22;100.00;98752.61;105186;1270;61376;-76
2022/04/20 03:11:24;;;;;;;120.10;88.90;;;;;;;0.20;100.00;98753.19;105133;1270;61260;-77
2022/04/20 03:13:51;;;;;;;126.80;87.80;;;;;;;0.20;100.00;98754.23;105192;1270;75213;-75
2022/04/20 03:16:17;;;;;;;115.60;79.80;;;;;;;0.19;100.00;98755.66;105205;1270;61388;-75
2022/04/20 03:18:44;;;;;;;118.90;77.80;;;;;;;0.18;100.00;98757.06;104956;1271;61299;-75
2022/04/20 03:21:10;;;;;;;129.80;83.50;;;;;;;0.19;100.00;98760.37;105190;1270;61315;-75
2022/04/20 03:23:37;;;;;;;174.80;107.30;;;;;;;0.20;100.00;98758.09;104928;1270;61725;-75
2022/04/20 03:26:04;;;;;;;171.50;110.30;;;;;;;0.20;100.00;98755.79;105132;1270;61265;-74
2022/04/20 03:28:30;;;;;;;125.40;85.30;;;;;;;0.22;100.00;98753.67;105186;1270;69144;-74
2022/04/20 03:30:57;;;;;;;126.50;86.80;;;;;;;0.24;100.00;98754.49;105175;1270;74383;-77
2022/04/20 03:33:24;;;;;;;134.90;92.30;;;;;;;0.25;100.00;98754.27;104948;1271;61207;-76
2022/04/20 03:35:51;;;;;;;127.60;92.30;;;;;;;0.26;100.00;98757.58;105107;1273;62109;-75
2022/04/20 03:38:18;;;;;;;132.20;94.70;;;;;;;0.26;100.00;98757.22;105107;1270;76160;-74
2022/04/20 03:40:45;;;;;;;138.40;96.80;;;;;;;0.26;100.00;98752.33;105191;1270;70294;-76
2022/04/20 03:43:13;;;;;;;139.00;101.60;;;;;;;0.27;100.00;98750.92;105529;1270;70717;-77
2022/04/20 03:45:40;;;;;;;123.30;90.00;;;;;;;0.29;100.00;98747.35;105289;1270;61345;-76
2022/04/20 03:48:06;;;;;;;127.10;91.90;;;;;;;0.33;100.00;98745.15;105209;1271;61175;-75
2022/04/20 03:50:33;;;;;;;121.60;86.30;;;;;;;0.36;100.00;98746.63;105203;1270;76601;-76
2022/04/20 03:53:00;;;;;;;118.90;84.40;;;;;;;0.37;100.00;98745.02;105130;1270;70700;-76
2022/04/20 03:55:26;;;;;;;119.50;82.70;;;;;;;0.39;100.00;98745.81;105148;1270;74717;-76
2022/04/20 03:57:53;;;;;;;102.70;74.80;;;;;;;0.42;100.00;98745.05;105157;1270;61383;-74
2022/04/20 04:00:20;;;;;;;113.80;81.80;;;;;;;0.47;100.00;98743.68;100437;1270;1015834;-76
2022/04/20 04:02:47;;;;;;;110.50;82.00;;;;;;;0.49;100.00;98740.45;105086;1273;73707;-76
2022/04/20 04:05:13;;;;;;;107.20;77.50;;;;;;;0.52;100.00;98740.19;105154;1270;61253;-77
2022/04/20 04:07:41;;;;;;;109.80;78.50;;;;;;;0.57;100.00;98743.01;105123;1271;73532;-76
2022/04/20 04:10:08;;;;;;;108.20;79.30;;;;;;;0.65;100.00;98741.02;105307;1270;61337;-76
2022/04/20 04:12:35;;;;;;;109.00;77.50;;;;;;;0.78;100.00;98739.90;105216;1270;61787;-75
2022/04/20 04:15:02;;;;;;;111.30;80.60;;;;;;;0.92;100.00;98741.59;105194;1270;61312;-75
2022/04/20 04:17:29;;;;;;;115.90;83.80;;;;;;;1.02;100.00;98743.52;105163;1270;69726;-76
2022/04/20 04:19:56;;;;;;;109.50;83.00;;;;;;;1.14;100.00;98743.30;105187;1270;61272;-76
2022/04/20 04:22:22;;;;;;;103.60;79.30;;;;;;;1.19;100.00;98745.41;105166;1270;61365;-76
2022/04/20 04:24:49;;;;;;;104.20;75.40;;;;;;;1.22;100.00;98748.64;105161;1270;61277;-76
2022/04/20 04:27:17;;;;;;;107.60;77.90;;;;;;;1.27;100.00;98753.20;105174;1271;75591;-75
2022/04/20 04:29:43;;;;;;;99.00;75.00;;;;;;;1.34;100.00;98759.44;105159;1270;70890;-75
2022/04/20 04:32:10;;;;;;;103.10;73.70;;;;;;;1.43;100.00;98761.23;105059;1271;61355;-77
2022/04/20 04:34:37;;;;;;;95.80;69.20;;;;;;;1.53;100.00;98766.88;105176;1270;61312;-76
2022/04/20 04:37:04;;;;;;;100.50;68.90;;;;;;;1.63;100.00;98771.08;105588;1270;61305;-75
2022/04/20 04:39:31;;;;;;;99.80;71.50;;;;;;;1.72;100.00;98771.45;105151;1270;75415;-76
2022/04/20 04:42:00;;;;;;;103.00;74.10;;;;;;;1.82;100.00;98773.03;105177;1271;67472;-75
2022/04/20 04:44:28;;;;;;;100.30;69.90;;;;;;;1.92;100.00;98773.19;104355;1270;1003734;-76
2022/04/20 04:49:40;;;;;;;98.40;69.30;;;;;;;2.29;100.00;98770.65;105161;1270;61279;-75
2022/04/20 04:52:11;;;;;;;94.30;68.70;;;;;;;2.61;100.00;98774.02;105234;1269;74899;-75
2022/04/20 04:54:42;;;;;;;85.30;64.70;;;;;;;3.09;100.00;98772.84;105172;1271;69558;-76
2022/04/20 04:57:09;;;;;;;79.40;64.20;;;;;;;3.64;100.00;98768.64;105219;1270;74703;-77
2022/04/20 04:59:37;;;;;;;80.80;63.10;;;;;;;3.92;100.00;98763.58;105429;1270;61278;-76
2022/04/20 05:02:05;;;;;;;76.50;59.20;;;;;;;3.90;100.00;98763.83;105222;1270;61310;-76
2022/04/20 05:04:32;;;;;;;75.80;62.30;;;;;;;3.89;100.00;98761.05;105291;1271;73414;-77
2022/04/20 05:06:59;;;;;;;73.30;59.70;;;;;;;3.93;100.00;98762.98;105426;1270;70575;-76
2022/04/20 05:09:25;;;;;;;71.90;58.30;;;;;;;3.96;100.00;98764.81;105526;1270;73193;-75
2022/04/20 05:11:52;;;;;;;73.90;60.60;;;;;;;3.98;100.00;98762.96;105619;1272;61388;-76
2022/04/20 05:14:19;;;;;;;70.40;57.10;;;;;;;3.98;100.00;98761.38;105581;1270;61384;-76
2022/04/20 05:16:47;;;;;;;63.60;52.80;;;;;;;3.93;100.00;98762.46;106023;1270;75556;-75
2022/04/20 05:19:13;;;;;;;67.40;54.80;;;;;;;3.87;100.00;98763.09;107417;1270;67298;-75
2022/04/20 05:21:40;;;;;;;69.50;56.40;;;;;;;3.81;100.00;98759.84;107219;1270;71617;-77
2022/04/20 05:24:06;;;;;;;71.20;56.40;;;;;;;3.78;100.00;98755.58;107241;1269;61495;-74
2022/04/20 05:26:33;;;;;;;67.70;55.40;;;;;;;3.79;100.00;98757.64;107348;1270;60918;-75
2022/04/20 05:29:00;;;;;;;68.90;56.90;;;;;;;3.83;100.00;98754.27;105710;1270;74611;-76
2022/04/20 05:31:27;;;;;;;70.20;57.70;;;;;;;3.90;100.00;98751.54;105245;1270;70281;-76
2022/04/20 05:33:53;;;;;;;71.10;56.00;;;;;;;3.94;100.00;98747.65;105276;1271;74390;-76
2022/04/20 05:36:20;;;;;;;70.80;55.10;;;;;;;4.00;100.00;98750.04;105209;1270;61148;-76
2022/04/20 05:41:41;;;;;;;66.50;53.80;;;;;;;4.06;100.00;98751.19;105220;1270;74170;-77
2022/04/20 05:44:12;;;;;;;65.80;54.10;;;;;;;4.06;100.00;98752.95;105121;1270;70328;-76
2022/04/20 05:46:39;;;;;;;70.10;56.40;;;;;;;4.08;100.00;98754.98;105213;1270;74386;-75
2022/04/20 05:49:06;;;;;;;62.00;51.80;;;;;;;4.08;100.00;98752.85;105098;1271;61298;-78
2022/04/20 05:51:33;;;;;;;64.80;54.00;;;;;;;4.05;100.00;98754.23;105183;1270;61518;-77
2022/04/20 05:54:00;;;;;;;61.60;49.40;;;;;;;4.02;100.00;98750.46;105031;1271;74656;-76
2022/04/20 05:56:26;;;;;;;58.80;47.00;;;;;;;4.02;100.00;98750.48;105108;1270;70124;-77
2022/04/20 05:58:53;;;;;;;67.80;54.00;;;;;;;3.97;100.00;98753.15;105094;1273;74407;-76
2022/04/20 06:01:22;;;;;;;66.70;52.80;;;;;;;3.93;100.00;98756.81;105169;1270;61332;-76
2022/04/20 06:03:49;;;;;;;64.40;52.40;;;;;;;3.93;100.00;98750.67;105082;1270;61345;-78
2022/04/20 06:06:16;;;;;;;65.60;54.30;;;;;;;3.95;100.00;98750.10;105161;1270;74281;-76
2022/04/20 06:08:42;;;;;;;61.00;51.80;;;;;;;3.96;100.00;98746.15;105153;1270;69929;-77
2022/04/20 06:11:11;;;;;;;69.40;55.00;;;;;;;3.99;100.00;98741.81;105107;1270;72591;-75
2022/04/20 06:13:38;;;;;;;61.90;51.10;;;;;;;4.04;100.00;98741.23;105108;1270;61374;-76
2022/04/20 06:16:08;;;;;;;66.10;55.60;;;;;;;4.05;100.00;98735.04;105130;1270;61364;-75
2022/04/20 06:18:34;;;;;;;;;;;;;;;4.06;100.00;98735.02;105183;1268;75213;-77
2022/04/20 06:21:02;;;;;;;58.10;49.40;;;;;;;4.08;100.00;98735.09;105127;1270;61377;-76
2022/04/20 06:23:29;;;;;;;58.10;48.50;;;;;;;4.12;100.00;98740.72;105105;1271;74381;-76
2022/04/20 06:25:55;;;;;;;56.40;47.60;;;;;;;4.16;100.00;98737.00;105150;1270;61355;-74
2022/04/20 06:28:24;;;;;;;62.70;51.00;;;;;;;4.21;100.00;98735.37;105189;1270;61387;-75
2022/04/20 06:30:52;;;;;;;60.70;51.10;;;;;;;4.26;100.00;98733.94;105172;1270;74932;-77
2022/04/20 06:33:21;;;;;;;57.70;49.60;;;;;;;4.28;100.00;98733.31;105133;1270;68331;-76
2022/04/20 06:35:48;;;;;;;62.50;51.50;;;;;;;4.30;100.00;98732.67;105051;1271;73301;-76
2022/04/20 06:38:15;;;;;;;56.50;47.30;;;;;;;4.33;100.00;98734.48;105188;1270;61292;-77
2022/04/20 06:40:43;;;;;;;59.00;49.50;;;;;;;4.37;100.00;98731.49;105143;1271;61228;-75
2022/04/20 06:43:10;;;;;;;59.70;49.10;;;;;;;4.38;100.00;98730.55;105199;1270;75290;-76
2022/04/20 06:45:36;;;;;;;57.00;46.60;;;;;;;4.39;100.00;98732.24;105104;1271;68994;-77
2022/04/20 06:48:03;;;;;;;51.30;43.30;;;;;;;4.44;100.00;98725.39;105191;1270;61257;-75
2022/04/20 06:50:30;;;;;;;56.20;45.60;;;;;;;4.47;100.00;98719.59;105195;1270;61137;-76
2022/04/20 06:58:35;;;;;;;52.40;42.90;;;;;;;4.51;100.00;98713.06;105175;1270;70595;-76
2022/04/20 07:01:07;;;;;;;53.50;44.10;;;;;;;4.54;100.00;98708.16;105182;1270;74624;-76
2022/04/20 07:03:38;;;;;;;45.10;39.30;;;;;;;4.57;100.00;98707.16;105066;1271;61301;-76
2022/04/20 07:06:05;;;;;;;45.40;38.10;;;;;;;4.59;100.00;98708.63;105152;1270;61295;-76
2022/04/20 07:08:32;;;;;;;44.90;40.00;;;;;;;4.60;100.00;98706.66;105214;1270;76336;-75
2022/04/20 07:11:00;;;;;;;51.60;39.90;;;;;;;4.60;100.00;98707.16;105019;1272;70657;-77
2022/04/20 07:13:27;;;;;;;47.40;38.70;;;;;;;4.61;100.00;98708.36;105167;1270;73194;-75
2022/04/20 07:15:53;;;;;;;43.70;36.90;;;;;;;4.62;100.00;98705.34;105234;1270;61282;-76
2022/04/20 07:18:20;;;;;;;46.20;38.30;;;;;;;4.64;100.00;98708.23;105162;1270;61212;-77
2022/04/20 07:20:47;;;;;;;42.50;36.40;;;;;;;4.66;100.00;98709.56;105193;1270;76680;-75
2022/04/20 07:23:14;;;;;;;42.80;36.50;;;;;;;4.67;100.00;98705.13;105176;1270;70331;-77
2022/04/20 07:25:40;;;;;;;44.40;38.50;;;;;;;4.69;100.00;98704.46;105064;1271;74264;-75
2022/04/20 07:28:08;;;;;;;44.70;37.60;;;;;;;4.70;100.00;98703.20;105115;1271;61257;-76
2022/04/20 07:30:56;;;;;;;45.10;38.50;;;;;;;4.68;100.00;98701.01;105257;1270;61818;-76
2022/04/20 07:33:24;;;;;;;47.40;40.10;;;;;;;4.71;100.00;98697.33;105206;1274;76188;-77
2022/04/20 07:35:50;;;;;;;46.00;36.60;;;;;;;4.73;100.00;98695.14;105261;1274;69541;-76
2022/04/20 07:38:17;;;;;;;45.20;37.40;;;;;;;4.74;100.00;98692.08;105016;1274;61377;-76
2022/04/20 07:40:43;;;;;;;41.30;34.10;;;;;;;4.76;100.00;98692.18;105033;1274;61380;-77
2022/04/20 07:43:10;;;;;;;44.90;35.80;;;;;;;4.78;100.00;98691.56;105032;1274;61490;-78
2022/04/20 07:45:36;;;;;;;43.80;36.40;;;;;;;4.80;100.00;98690.60;105058;1274;61388;-78
2022/04/20 07:48:03;;;;;;;40.10;34.30;;;;;;;4.82;100.00;98693.99;104999;1274;61337;-76
2022/04/20 07:50:29;;;;;;;37.30;33.20;;;;;;;4.86;100.00;98692.56;105035;1274;73777;-76
2022/04/20 07:52:59;;;;;;;41.20;35.10;;;;;;;4.92;100.00;98695.28;105008;1274;61388;-76
2022/04/20 07:55:30;;;;;;;42.50;34.60;;;;;;;4.99;100.00;98688.24;105054;1274;61264;-78
2022/04/20 07:57:59;;;;;;;39.40;33.40;;;;;;;5.09;100.00;98680.54;105348;1274;76434;-81
2022/04/20 08:00:27;;;;;;;40.60;34.70;;;;;;;5.20;100.00;98675.41;105374;1274;69128;-76
2022/04/20 08:03:13;;;;;;;39.90;34.30;;;;;;;5.31;100.00;98675.39;104922;1274;72307;-76
2022/04/20 08:05:41;;;;;;;39.60;32.90;;;;;;;5.41;100.00;98672.04;105274;1274;61461;-75
2022/04/20 08:08:10;;;;;;;40.90;34.80;;;;;;;5.49;100.00;98672.36;105688;1273;61163;-75
2022/04/20 08:10:37;;;;;;;40.60;34.10;;;;;;;5.55;100.00;98670.10;105242;1271;76682;-76
2022/04/20 08:14:09;;;;;;;39.40;34.30;;;;;;;5.57;100.00;98670.88;105329;1270;68712;-77
2022/04/20 08:15:50;;;;;;;41.40;35.20;;;;;;;5.61;100.00;98669.08;105341;1271;73426;-79
2022/04/20 08:18:17;;;;;;;40.80;34.80;;;;;;;5.69;100.00;98664.44;105264;1271;61180;-76
2022/04/20 08:20:44;;;;;;;40.50;34.60;;;;;;;5.77;100.00;98665.13;105261;1271;61285;-76
2022/04/20 08:23:10;;;;;;;38.80;34.50;;;;;;;5.82;100.00;98665.19;105293;1270;74220;-77
2022/04/20 08:25:37;;;;;;;41.90;34.10;;;;;;;5.85;100.00;98663.94;105353;1270;68261;-77
2022/04/20 08:28:03;;;;;;;37.50;32.20;;;;;;;5.89;100.00;98662.68;105232;1271;74275;-76
2022/04/20 08:30:30;;;;;;;40.10;32.90;;;;;;;5.92;100.00;98659.52;105299;1271;61178;-78
2022/04/20 08:32:57;;;;;;;40.00;33.20;;;;;;;5.95;100.00;98660.63;105730;1271;61803;-77
2022/04/20 08:35:24;;;;;;;39.30;33.20;;;;;;;5.97;100.00;98659.13;105512;1271;75303;-77
2022/04/20 08:37:51;;;;;;;42.80;35.50;;;;;;;6.01;100.00;98659.12;105042;1271;67372;-77
2022/04/20 08:40:17;;;;;;;37.90;32.60;;;;;;;6.02;100.00;98656.90;105524;1271;72569;-83
2022/04/20 08:42:46;;;;;;;33.80;29.80;;;;;;;6.03;100.00;98652.11;105597;1271;61445;-82
2022/04/20 08:45:14;;;;;;;37.80;32.60;;;;;;;6.06;100.00;98651.08;105822;1271;62119;-83
2022/04/20 08:47:43;;;;;;;35.30;30.60;;;;;;;6.13;100.00;98649.06;105737;1270;75388;-75
2022/04/20 08:50:10;;;;;;;36.80;32.80;;;;;;;6.23;100.00;98648.23;105140;1271;69243;-73
2022/04/20 08:52:37;;;;;;;37.00;32.40;;;;;;;6.30;100.00;98646.20;105193;1270;71549;-73
2022/04/20 08:55:05;;;;;;;37.70;33.50;;;;;;;6.38;100.00;98645.42;105240;1271;61270;-74
2022/04/20 08:57:33;;;;;;;37.70;32.20;;;;;;;6.45;100.00;98644.14;105233;1268;61206;-74
2022/04/20 09:00:01;;;;;;;37.50;32.20;;;;;;;6.46;100.00;98641.48;105348;1271;76329;-73
2022/04/20 09:02:28;;;;;;;35.40;30.70;;;;;;;6.44;100.00;98644.00;105278;1271;70450;-74
2022/04/20 09:04:56;;;;;;;36.60;32.50;;;;;;;6.42;100.00;98646.98;105207;1271;73183;-74
2022/04/20 09:07:24;;;;;;;33.30;28.80;;;;;;;6.40;100.00;98648.86;105304;1271;61225;-75
2022/04/20 09:09:51;;;;;;;36.10;32.10;;;;;;;6.34;100.00;98649.14;105506;1271;61585;-74
2022/04/20 09:12:22;;;;;;;38.00;31.10;;;;;;;6.29;100.00;98649.30;105277;1271;74969;-74
2022/04/20 09:14:51;;;;;;;35.50;31.60;;;;;;;6.27;100.00;98646.38;105204;1271;68520;-73
2022/04/20 09:17:20;;;;;;;35.60;30.90;;;;;;;6.30;100.00;98646.38;105213;1271;72316;-74
2022/04/20 09:19:52;;;;;;;36.50;31.30;;;;;;;6.35;100.00;98649.64;105516;1271;61234;-74
2022/04/20 09:22:30;;;;;;;37.60;31.50;;;;;;;6.38;100.00;98643.80;105366;1270;61271;-73
2022/04/20 09:25:11;;;;;;;36.10;29.20;;;;;;;6.43;100.00;98640.41;105270;1271;73627;-73
2022/04/20 09:27:40;;;;;;;37.90;29.10;;;;;;;6.50;100.00;98638.38;104980;1271;69217;-73
2022/04/20 09:30:16;;;;;;;37.80;31.20;;;;;;;6.57;100.00;98636.62;105340;1271;72793;-73
2022/04/20 09:32:45;;;;;;;30.70;27.40;;;;;;;6.63;100.00;98633.10;105325;1271;61268;-74
2022/04/20 09:35:16;;;;;;;35.80;29.60;;;;;;;6.66;100.00;98631.83;105300;1271;61313;-75
2022/04/20 09:37:43;;;;;;;31.60;26.70;;;;;;;6.70;100.00;98625.60;104972;1271;76218;-73
2022/04/20 09:40:13;;;;;;;33.70;27.80;;;;;;;6.77;100.00;98622.36;105283;1271;70826;-73
2022/04/20 09:43:01;;;;;;;32.10;27.20;;;;;;;6.82;100.00;98617.70;105111;1271;72680;-73
2022/04/20 09:45:30;;;;;;;28.70;24.80;;;;;;;6.93;100.00;98615.63;105415;1270;61288;-73
2022/04/20 09:50:43;;;;;;;29.10;25.90;;;;;;;7.15;100.00;98611.91;105179;1271;75425;-73
2022/04/20 09:53:12;;;;;;;27.60;24.40;;;;;;;7.28;100.00;98603.66;105207;1271;61356;-73
2022/04/20 09:55:41;;;;;;;30.10;23.90;;;;;;;7.35;100.00;98604.84;105285;1271;73802;-74
2022/04/20 09:58:13;;;;;;;26.50;23.70;;;;;;;7.44;100.00;98604.83;105274;1271;61323;-74
2022/04/20 10:00:42;;;;;;;25.40;22.80;;;;;;;7.55;100.00;98605.96;105004;1271;61852;-74
2022/04/20 10:03:08;;;;;;;27.20;22.70;;;;;;;7.62;100.00;98601.45;105243;1271;75133;-74
2022/04/20 10:05:37;;;;;;;26.50;23.70;;;;;;;7.75;100.00;98602.95;105277;1271;69391;-73
2022/04/20 10:08:05;;;;;;;26.50;23.40;;;;;;;7.91;100.00;98597.75;105284;1271;73156;-73
2022/04/20 10:10:35;;;;;;;30.20;23.80;;;;;;;8.06;100.00;98598.20;105276;1271;61282;-73
2022/04/20 10:13:03;;;;;;;26.90;24.00;;;;;;;8.18;100.00;98595.15;105236;1273;61479;-73
2022/04/20 10:18:19;;;;;;;22.40;20.00;;;;;;;8.47;99.90;98590.14;105187;1271;70609;-74
2022/04/20 10:20:48;;;;;;;23.30;20.90;;;;;;;8.53;99.05;98587.96;105289;1271;72870;-73
2022/04/20 10:23:18;;;;;;;22.50;20.10;;;;;;;8.57;98.97;98584.55;105800;1271;61288;-73
2022/04/20 10:25:45;;;;;;;;;;;;;;;8.63;98.93;98583.96;105266;1270;61286;-74
2022/04/20 10:28:37;;;;;;;22.50;20.10;;;;;;;8.67;98.35;98583.38;105291;1271;74569;-73
2022/04/20 10:31:30;;;;;;;21.20;18.90;;;;;;;8.71;98.12;98580.39;105263;1271;70120;-73
2022/04/20 10:33:57;;;;;;;21.30;17.70;;;;;;;8.68;97.49;98574.76;104697;1277;72868;-73
2022/04/20 10:36:32;;;;;;;19.20;17.30;;;;;;;8.72;97.37;98575.38;104661;1276;61476;-73
2022/04/20 10:39:22;;;;;;;21.30;17.50;;;;;;;8.73;96.41;98575.30;104692;1276;61570;-74
2022/04/20 10:42:17;;;;;;;19.30;17.40;;;;;;;8.75;96.03;98568.27;104664;1276;76436;-73
2022/04/20 10:44:55;;;;;;;18.80;16.80;;;;;;;8.78;95.84;98570.19;104648;1277;70168;-73
2022/04/20 10:47:29;;;;;;;21.30;18.90;;;;;;;8.81;95.69;98572.85;104663;1276;74403;-72
2022/04/20 10:50:13;;;;;;;20.90;18.60;;;;;;;8.86;95.56;98570.92;104691;1276;61344;-74
2022/04/20 10:52:42;;;;;;;20.10;17.20;;;;;;;8.91;95.33;98571.46;104747;1277;62042;-74
2022/04/20 10:55:11;;;;;;;20.20;18.10;;;;;;;9.02;95.36;98565.78;104789;1277;76816;-73
2022/04/20 10:57:41;;;;;;;20.20;18.20;;;;;;;9.16;94.76;98565.50;104691;1277;70157;-73
2022/04/20 11:00:16;;;;;;;20.50;18.40;;;;;;;9.27;94.91;98565.31;104526;1277;73365;-73
2022/04/20 11:02:53;;;;;;;18.70;16.80;;;;;;;9.42;94.72;98568.52;104562;1277;61591;-74
2022/04/20 11:05:22;;;;;;;17.20;15.40;;;;;;;9.52;93.11;98567.70;104674;1276;60309;-73
2022/04/20 11:08:06;;;;;;;17.90;14.90;;;;;;;9.52;92.51;98566.78;104710;1277;75118;-73
2022/04/20 11:10:34;;;;;;;17.20;15.50;;;;;;;9.54;91.22;98565.73;104744;1276;70349;-73
2022/04/20 11:19:02;;;;;;;14.70;13.20;;;;;;;9.63;89.55;98563.72;105093;1274;61273;-74
2022/04/20 11:21:29;;;;;;;14.00;12.50;;;;;;;9.63;89.95;98561.06;105114;1274;76651;-73
2022/04/20 11:24:05;;;;;;;11.70;10.60;;;;;;;9.67;89.53;98566.27;105065;1274;69185;-73
2022/04/20 11:26:35;;;;;;;15.10;13.60;;;;;;;9.71;88.41;98565.46;104930;1274;74367;-74
2022/04/20 11:29:08;;;;;;;15.60;14.00;;;;;;;9.73;88.81;98562.54;105023;1274;61321;-72
2022/04/20 11:31:37;;;;;;;16.20;14.60;;;;;;;9.83;89.13;98563.23;105291;1274;61276;-73
2022/04/20 11:34:05;;;;;;;14.00;12.50;;;;;;;9.93;88.47;98561.40;105155;1274;73359;-74
2022/04/20 11:36:32;;;;;;;14.40;13.00;;;;;;;9.94;86.61;98559.90;105215;1274;69179;-79
2022/04/20 11:39:01;;;;;;;15.30;13.70;;;;;;;9.94;86.65;98556.18;105182;1274;74107;-77